Summerfield, Texas
Current Conditions -  °F | °C
As of 9:15 AM on Monday 24 Nov 2014 (Local Time) from KHRX Reporting Station
Clear Clear  
Wind Chill: 28°   Ceiling: Unl
Heat Index: 33°   Visibility: 10mi
Dew Point: 30°   Wind: 6mph
Humidity: 90%   Direction: 190°S
Pressure: 30.05"   Gusts: NA
Location:  34.74°N, 102.51°W
Report Text: KHRX 241515Z AUTO 19005KT 10SM CLR 01/M01 A3005 RMK AO2 T00061009
Loading
Personal Weather Stations






























Interactive Weather Map New forecast layout! Learn more

10-Day Weather Forecast

Advertisements
Track Severe Weather on mobile